Terminal Aerodrome Forecast
Issued by NWS

Home | Current Version | Previous Version | Text Only | Print | Product List | Glossary On
Versions: 1 2 3 4 5 6 7 8 9 10 11 12 13 14 15 16 17
072
FTUS43 KMQT 230532
TAFCMX
TAF
KCMX 230532Z 2306/2406 03014G23KT 2SM -SN OVC014
     FM231100 01015G26KT 6SM -SHSN OVC012
     FM231500 01017G26KT P6SM BKN012
     FM231600 01017G25KT P6SM BKN012
     FM231800 36015G24KT P6SM SCT015
     FM240200 01008KT P6SM BKN045
     FM240500 02006KT P6SM BKN030=

USA.gov is the U.S. government's official web portal to all federal, state and local government web resources and services.